sensor_id;sensor_type;location;lat;lon;timestamp;P1;durP1;ratioP1;P2;durP2;ratioP2
22515;SDS011;11424;48.860;9.624;2023-06-04T02:59:20;5.1;;;9.6;;
22515;SDS011;11424;48.860;9.624;2023-06-04T03:04:20;4.8;;;8.8;;
22515;SDS011;11424;48.860;9.624;2023-06-04T03:09:20;5.1;;;8.6;;
22515;SDS011;11424;48.860;9.624;2023-06-04T03:14:20;1.6;;;1.7;;
22515;SDS011;11424;48.860;9.624;2023-06-04T03:19:20;1.9;;;2.1;;
22515;SDS011;11424;48.860;9.624;2023-06-04T03:24:21;1.7;;;2.3;;
22515;SDS011;11424;48.860;9.624;2023-06-04T03:29:20;1.6;;;1.7;;
22515;SDS011;11424;48.860;9.624;2023-06-04T03:34:20;5.4;;;9.9;;
22515;SDS011;11424;48.860;9.624;2023-06-04T03:39:20;5.5;;;10;;
22515;SDS011;11424;48.860;9.624;2023-06-04T03:44:20;5.7;;;10.3;;
22515;SDS011;11424;48.860;9.624;2023-06-04T03:49:20;4.4;;;7.4;;
22515;SDS011;11424;48.860;9.624;2023-06-04T03:54:21;3.9;;;7.2;;
22515;SDS011;11424;48.860;9.624;2023-06-04T03:59:20;1.7;;;1.9;;
22515;SDS011;11424;48.860;9.624;2023-06-04T04:04:21;1.7;;;1.9;;
22515;SDS011;11424;48.860;9.624;2023-06-04T04:09:20;1.5;;;1.6;;
22515;SDS011;11424;48.860;9.624;2023-06-04T04:14:20;5;;;9.1;;
22515;SDS011;11424;48.860;9.624;2023-06-04T04:19:20;5.3;;;9.5;;
22515;SDS011;11424;48.860;9.624;2023-06-04T04:24:22;5.6;;;10.8;;
22515;SDS011;11424;48.860;9.624;2023-06-04T04:29:20;5;;;10.3;;
22515;SDS011;11424;48.860;9.624;2023-06-04T04:34:20;5.5;;;10.3;;
22515;SDS011;11424;48.860;9.624;2023-06-04T04:39:21;1.6;;;2;;
22515;SDS011;11424;48.860;9.624;2023-06-04T04:44:20;1.8;;;2;;
22515;SDS011;11424;48.860;9.624;2023-06-04T04:49:20;1.5;;;1.6;;
22515;SDS011;11424;48.860;9.624;2023-06-04T04:54:20;5.4;;;9.8;;
22515;SDS011;11424;48.860;9.624;2023-06-04T04:59:20;5.4;;;10.1;;
22515;SDS011;11424;48.860;9.624;2023-06-04T05:04:21;5.4;;;10.1;;
22515;SDS011;11424;48.860;9.624;2023-06-04T05:09:20;5;;;9.9;;
22515;SDS011;11424;48.860;9.624;2023-06-04T05:14:21;5.7;;;11.4;;
22515;SDS011;11424;48.860;9.624;2023-06-04T05:19:20;6.1;;;11.8;;
22515;SDS011;11424;48.860;9.624;2023-06-04T05:24:21;1.3;;;1.4;;
22515;SDS011;11424;48.860;9.624;2023-06-04T05:29:21;1.4;;;1.5;;
22515;SDS011;11424;48.860;9.624;2023-06-04T05:34:21;5.9;;;11.9;;
22515;SDS011;11424;48.860;9.624;2023-06-04T05:39:21;5.3;;;10.1;;
22515;SDS011;11424;48.860;9.624;2023-06-04T05:44:21;5.8;;;11.3;;
22515;SDS011;11424;48.860;9.624;2023-06-04T05:49:20;5.3;;;11.4;;
22515;SDS011;11424;48.860;9.624;2023-06-04T05:54:21;22.6;;;30.3;;
22515;SDS011;11424;48.860;9.624;2023-06-04T05:59:21;6.1;;;12;;
22515;SDS011;11424;48.860;9.624;2023-06-04T06:04:20;6.1;;;11.8;;
22515;SDS011;11424;48.860;9.624;2023-06-04T06:09:21;1.7;;;1.9;;
22515;SDS011;11424;48.860;9.624;2023-06-04T06:14:21;6.7;;;12.8;;
22515;SDS011;11424;48.860;9.624;2023-06-04T06:19:21;6.1;;;11.2;;
22515;SDS011;11424;48.860;9.624;2023-06-04T06:24:21;5.9;;;10.8;;
22515;SDS011;11424;48.860;9.624;2023-06-04T06:29:21;7.9;;;14;;
22515;SDS011;11424;48.860;9.624;2023-06-04T06:34:21;6.9;;;12.3;;
22515;SDS011;11424;48.860;9.624;2023-06-04T06:39:21;7.5;;;13.3;;
22515;SDS011;11424;48.860;9.624;2023-06-04T06:44:21;6.4;;;11.4;;
22515;SDS011;11424;48.860;9.624;2023-06-04T06:49:21;6.6;;;11.6;;
22515;SDS011;11424;48.860;9.624;2023-06-04T06:54:21;6.1;;;12.3;;
22515;SDS011;11424;48.860;9.624;2023-06-04T06:59:21;6.9;;;13.3;;
22515;SDS011;11424;48.860;9.624;2023-06-04T07:04:21;6.1;;;13.2;;
22515;SDS011;11424;48.860;9.624;2023-06-04T07:09:21;6.5;;;13.6;;
22515;SDS011;11424;48.860;9.624;2023-06-04T07:14:21;5.4;;;11.1;;
22515;SDS011;11424;48.860;9.624;2023-06-04T07:19:21;6.5;;;12.8;;
22515;SDS011;11424;48.860;9.624;2023-06-04T07:24:21;5.8;;;11.6;;
22515;SDS011;11424;48.860;9.624;2023-06-04T07:29:21;6.6;;;13.6;;
22515;SDS011;11424;48.860;9.624;2023-06-04T07:34:21;5.7;;;10.4;;
22515;SDS011;11424;48.860;9.624;2023-06-04T07:39:21;2;;;2.7;;
22515;SDS011;11424;48.860;9.624;2023-06-04T07:44:21;1.8;;;2.1;;
22515;SDS011;11424;48.860;9.624;2023-06-04T07:49:21;2;;;2.2;;
22515;SDS011;11424;48.860;9.624;2023-06-04T07:54:21;6;;;12.4;;
22515;SDS011;11424;48.860;9.624;2023-06-04T07:59:21;6.6;;;13.9;;
22515;SDS011;11424;48.860;9.624;2023-06-04T08:04:21;6.6;;;13.3;;
22515;SDS011;11424;48.860;9.624;2023-06-04T08:09:21;6.4;;;12.7;;
22515;SDS011;11424;48.860;9.624;2023-06-04T08:14:21;8;;;15.4;;
22515;SDS011;11424;48.860;9.624;2023-06-04T08:19:21;1.5;;;1.6;;
22515;SDS011;11424;48.860;9.624;2023-06-04T08:24:21;1.6;;;1.7;;
22515;SDS011;11424;48.860;9.624;2023-06-04T08:29:21;1.8;;;1.9;;
22515;SDS011;11424;48.860;9.624;2023-06-04T08:34:21;7.1;;;14;;
22515;SDS011;11424;48.860;9.624;2023-06-04T08:39:21;8.2;;;16.5;;
22515;SDS011;11424;48.860;9.624;2023-06-04T08:44:21;8.9;;;17.8;;
22515;SDS011;11424;48.860;9.624;2023-06-04T08:49:21;7;;;13.7;;
22515;SDS011;11424;48.860;9.624;2023-06-04T08:54:21;8.5;;;16.7;;
22515;SDS011;11424;48.860;9.624;2023-06-04T08:59:21;8.4;;;16.1;;
22515;SDS011;11424;48.860;9.624;2023-06-04T09:04:21;2.4;;;2.6;;
22515;SDS011;11424;48.860;9.624;2023-06-04T09:09:21;2.2;;;2.6;;
22515;SDS011;11424;48.860;9.624;2023-06-04T09:14:21;8;;;14.8;;
22515;SDS011;11424;48.860;9.624;2023-06-04T09:19:21;8.1;;;13.4;;
22515;SDS011;11424;48.860;9.624;2023-06-04T09:24:21;10.6;;;16.2;;
22515;SDS011;11424;48.860;9.624;2023-06-04T09:29:21;10.2;;;14;;
22515;SDS011;11424;48.860;9.624;2023-06-04T09:34:26;12.9;;;16.2;;
22515;SDS011;11424;48.860;9.624;2023-06-04T09:39:21;16.6;;;23.1;;
22515;SDS011;11424;48.860;9.624;2023-06-04T09:44:21;14.7;;;19.1;;
22515;SDS011;11424;48.860;9.624;2023-06-04T09:49:21;9.4;;;10;;
22515;SDS011;11424;48.860;9.624;2023-06-04T09:54:21;41.9;;;44.9;;
22515;SDS011;11424;48.860;9.624;2023-06-04T09:59:21;23.5;;;24.8;;
22515;SDS011;11424;48.860;9.624;2023-06-04T10:04:21;35.1;;;37.4;;
22515;SDS011;11424;48.860;9.624;2023-06-04T10:09:22;23.5;;;24.9;;
22515;SDS011;11424;48.860;9.624;2023-06-04T10:14:21;25.2;;;26.8;;
22515;SDS011;11424;48.860;9.624;2023-06-04T10:19:21;37.1;;;39.6;;
22515;SDS011;11424;48.860;9.624;2023-06-04T10:24:21;28.9;;;30.6;;
22515;SDS011;11424;48.860;9.624;2023-06-04T10:29:21;22.2;;;23.6;;
22515;SDS011;11424;48.860;9.624;2023-06-04T10:34:21;36.3;;;38.5;;
22515;SDS011;11424;48.860;9.624;2023-06-04T10:39:25;25.8;;;27.3;;
22515;SDS011;11424;48.860;9.624;2023-06-04T10:44:21;28.1;;;29.9;;
22515;SDS011;11424;48.860;9.624;2023-06-04T10:49:29;22.8;;;24.2;;
22515;SDS011;11424;48.860;9.624;2023-06-04T10:54:22;20.4;;;21.6;;
22515;SDS011;11424;48.860;9.624;2023-06-04T10:59:21;25.4;;;26.9;;
22515;SDS011;11424;48.860;9.624;2023-06-04T11:04:21;23;;;24.4;;
22515;SDS011;11424;48.860;9.624;2023-06-04T11:09:21;27.5;;;29.2;;
22515;SDS011;11424;48.860;9.624;2023-06-04T11:14:21;25.4;;;27;;
22515;SDS011;11424;48.860;9.624;2023-06-04T11:19:21;33.3;;;35.3;;
22515;SDS011;11424;48.860;9.624;2023-06-04T11:24:21;25.4;;;27;;
22515;SDS011;11424;48.860;9.624;2023-06-04T11:29:21;33.5;;;35.7;;
22515;SDS011;11424;48.860;9.624;2023-06-04T11:34:22;34;;;36.1;;
22515;SDS011;11424;48.860;9.624;2023-06-04T11:39:22;29.6;;;31.4;;
22515;SDS011;11424;48.860;9.624;2023-06-04T11:44:21;34.7;;;36.9;;
22515;SDS011;11424;48.860;9.624;2023-06-04T11:49:21;57.1;;;60.5;;
22515;SDS011;11424;48.860;9.624;2023-06-04T11:54:21;53.1;;;56.4;;
22515;SDS011;11424;48.860;9.624;2023-06-04T11:59:21;59.2;;;62.8;;
22515;SDS011;11424;48.860;9.624;2023-06-04T12:04:21;28.8;;;30.7;;
22515;SDS011;11424;48.860;9.624;2023-06-04T12:09:21;27.8;;;29.6;;
22515;SDS011;11424;48.860;9.624;2023-06-04T12:14:21;52.6;;;56.1;;
22515;SDS011;11424;48.860;9.624;2023-06-04T12:19:21;53.1;;;56.8;;
22515;SDS011;11424;48.860;9.624;2023-06-04T12:24:21;51.2;;;54.6;;
22515;SDS011;11424;48.860;9.624;2023-06-04T12:29:21;67.7;;;72.7;;
22515;SDS011;11424;48.860;9.624;2023-06-04T12:34:21;52.5;;;55.9;;
22515;SDS011;11424;48.860;9.624;2023-06-04T12:39:21;32.2;;;34.1;;
22515;SDS011;11424;48.860;9.624;2023-06-04T12:44:21;47.6;;;50;;
22515;SDS011;11424;48.860;9.624;2023-06-04T12:49:21;40.9;;;43.3;;
22515;SDS011;11424;48.860;9.624;2023-06-04T12:54:21;29;;;31.9;;
22515;SDS011;11424;48.860;9.624;2023-06-04T12:59:21;2.9;;;3.2;;
22515;SDS011;11424;48.860;9.624;2023-06-04T13:04:21;3.2;;;3.5;;
22515;SDS011;11424;48.860;9.624;2023-06-04T13:09:21;2.7;;;3;;
22515;SDS011;11424;48.860;9.624;2023-06-04T13:14:21;2.8;;;3.1;;
22515;SDS011;11424;48.860;9.624;2023-06-04T13:19:21;3;;;3.6;;
22515;SDS011;11424;48.860;9.624;2023-06-04T13:24:21;3.1;;;3.5;;
22515;SDS011;11424;48.860;9.624;2023-06-04T13:29:21;2.9;;;3.9;;
22515;SDS011;11424;48.860;9.624;2023-06-04T13:34:21;2.8;;;3.4;;
22515;SDS011;11424;48.860;9.624;2023-06-04T13:39:21;2.7;;;3.2;;
22515;SDS011;11424;48.860;9.624;2023-06-04T13:44:21;3;;;3.3;;
22515;SDS011;11424;48.860;9.624;2023-06-04T13:49:21;3.2;;;3.7;;
22515;SDS011;11424;48.860;9.624;2023-06-04T13:54:21;2.8;;;3.1;;
22515;SDS011;11424;48.860;9.624;2023-06-04T13:59:21;2.9;;;3.6;;
22515;SDS011;11424;48.860;9.624;2023-06-04T14:04:21;2.8;;;3.5;;
22515;SDS011;11424;48.860;9.624;2023-06-04T14:09:21;2.3;;;2.5;;
22515;SDS011;11424;48.860;9.624;2023-06-04T14:14:21;2.8;;;3.1;;
22515;SDS011;11424;48.860;9.624;2023-06-04T14:19:21;3;;;3.3;;
22515;SDS011;11424;48.860;9.624;2023-06-04T14:24:21;2.7;;;3;;
22515;SDS011;11424;48.860;9.624;2023-06-04T14:29:21;2.6;;;2.9;;
22515;SDS011;11424;48.860;9.624;2023-06-04T14:34:21;2.7;;;3;;
22515;SDS011;11424;48.860;9.624;2023-06-04T14:39:21;2.8;;;3.4;;
22515;SDS011;11424;48.860;9.624;2023-06-04T14:44:21;2.7;;;2.9;;
22515;SDS011;11424;48.860;9.624;2023-06-04T14:49:21;2.9;;;3.5;;
22515;SDS011;11424;48.860;9.624;2023-06-04T14:54:21;2.5;;;2.9;;
22515;SDS011;11424;48.860;9.624;2023-06-04T14:59:21;1.9;;;2;;
22515;SDS011;11424;48.860;9.624;2023-06-04T15:04:21;2.8;;;3.1;;
22515;SDS011;11424;48.860;9.624;2023-06-04T15:09:21;2.5;;;2.8;;
22515;SDS011;11424;48.860;9.624;2023-06-04T15:14:21;2.3;;;2.5;;
22515;SDS011;11424;48.860;9.624;2023-06-04T15:19:21;3.6;;;4;;
22515;SDS011;11424;48.860;9.624;2023-06-04T15:24:21;3.1;;;3.4;;
22515;SDS011;11424;48.860;9.624;2023-06-04T15:29:21;2.3;;;2.5;;
22515;SDS011;11424;48.860;9.624;2023-06-04T15:34:21;3;;;3.3;;
22515;SDS011;11424;48.860;9.624;2023-06-04T15:39:21;4.2;;;4.6;;
22515;SDS011;11424;48.860;9.624;2023-06-04T15:44:21;3.1;;;3.4;;
22515;SDS011;11424;48.860;9.624;2023-06-04T15:49:21;3.3;;;3.7;;
22515;SDS011;11424;48.860;9.624;2023-06-04T15:54:21;2.6;;;2.9;;
22515;SDS011;11424;48.860;9.624;2023-06-04T15:59:21;2.7;;;3.2;;
22515;SDS011;11424;48.860;9.624;2023-06-04T16:04:21;2.3;;;2.5;;
22515;SDS011;11424;48.860;9.624;2023-06-04T16:09:21;2.6;;;2.8;;
22515;SDS011;11424;48.860;9.624;2023-06-04T16:14:21;2.5;;;2.7;;
22515;SDS011;11424;48.860;9.624;2023-06-04T16:19:21;2.3;;;2.7;;
22515;SDS011;11424;48.860;9.624;2023-06-04T16:24:21;2.8;;;3.5;;
22515;SDS011;11424;48.860;9.624;2023-06-04T16:29:21;2.5;;;2.7;;
22515;SDS011;11424;48.860;9.624;2023-06-04T16:34:21;2.6;;;2.9;;
22515;SDS011;11424;48.860;9.624;2023-06-04T16:39:21;2.9;;;3.2;;
22515;SDS011;11424;48.860;9.624;2023-06-04T16:44:21;2.5;;;2.7;;
22515;SDS011;11424;48.860;9.624;2023-06-04T16:49:21;3.4;;;3.7;;
22515;SDS011;11424;48.860;9.624;2023-06-04T16:54:21;23.9;;;25.3;;
22515;SDS011;11424;48.860;9.624;2023-06-04T16:59:21;23.9;;;25.2;;
22515;SDS011;11424;48.860;9.624;2023-06-04T17:04:21;23.5;;;24.9;;
22515;SDS011;11424;48.860;9.624;2023-06-04T17:09:21;20.2;;;21.5;;
22515;SDS011;11424;48.860;9.624;2023-06-04T17:14:21;30.5;;;32.2;;
22515;SDS011;11424;48.860;9.624;2023-06-04T17:19:21;32.2;;;34.1;;
22515;SDS011;11424;48.860;9.624;2023-06-04T17:24:21;23.3;;;24.8;;
22515;SDS011;11424;48.860;9.624;2023-06-04T17:29:22;15.7;;;16.5;;
22515;SDS011;11424;48.860;9.624;2023-06-04T17:34:21;36.1;;;38;;
22515;SDS011;11424;48.860;9.624;2023-06-04T17:39:21;43.1;;;45.4;;
22515;SDS011;11424;48.860;9.624;2023-06-04T17:44:21;43.1;;;45.3;;
22515;SDS011;11424;48.860;9.624;2023-06-04T17:49:21;42.9;;;45.2;;
22515;SDS011;11424;48.860;9.624;2023-06-04T17:54:21;45.3;;;47.8;;
22515;SDS011;11424;48.860;9.624;2023-06-04T17:59:22;48.2;;;50.8;;
22515;SDS011;11424;48.860;9.624;2023-06-04T18:04:21;25.1;;;26.4;;
22515;SDS011;11424;48.860;9.624;2023-06-04T18:09:21;27.6;;;29;;
22515;SDS011;11424;48.860;9.624;2023-06-04T18:14:21;23.2;;;24.4;;
22515;SDS011;11424;48.860;9.624;2023-06-04T18:19:22;23.6;;;24.9;;
22515;SDS011;11424;48.860;9.624;2023-06-04T18:24:22;12.6;;;13.2;;
22515;SDS011;11424;48.860;9.624;2023-06-04T18:29:22;28.3;;;29.7;;
22515;SDS011;11424;48.860;9.624;2023-06-04T18:34:22;16.6;;;17.4;;
22515;SDS011;11424;48.860;9.624;2023-06-04T18:39:22;16.8;;;17.7;;
22515;SDS011;11424;48.860;9.624;2023-06-04T18:44:22;25.1;;;26.5;;
22515;SDS011;11424;48.860;9.624;2023-06-04T18:49:22;35.4;;;37.3;;
22515;SDS011;11424;48.860;9.624;2023-06-04T18:54:22;28;;;29.5;;
22515;SDS011;11424;48.860;9.624;2023-06-04T18:59:22;20.1;;;21.2;;
22515;SDS011;11424;48.860;9.624;2023-06-04T19:04:21;23.4;;;24.6;;
22515;SDS011;11424;48.860;9.624;2023-06-04T19:09:22;19.2;;;20.2;;
22515;SDS011;11424;48.860;9.624;2023-06-04T19:14:22;13.3;;;14.1;;
22515;SDS011;11424;48.860;9.624;2023-06-04T19:19:22;28.4;;;29.8;;
22515;SDS011;11424;48.860;9.624;2023-06-04T19:24:22;16.3;;;17.2;;
22515;SDS011;11424;48.860;9.624;2023-06-04T19:29:22;12;;;12.8;;
22515;SDS011;11424;48.860;9.624;2023-06-04T19:34:22;33.7;;;35.5;;
22515;SDS011;11424;48.860;9.624;2023-06-04T19:39:22;9.9;;;10.6;;
22515;SDS011;11424;48.860;9.624;2023-06-04T19:44:22;39.6;;;41.8;;
22515;SDS011;11424;48.860;9.624;2023-06-04T19:49:22;18.8;;;19.8;;
22515;SDS011;11424;48.860;9.624;2023-06-04T19:54:22;18.9;;;19.9;;
22515;SDS011;11424;48.860;9.624;2023-06-04T19:59:22;39.2;;;41.6;;
22515;SDS011;11424;48.860;9.624;2023-06-04T20:04:22;42.1;;;44.5;;
22515;SDS011;11424;48.860;9.624;2023-06-04T20:09:22;32.6;;;34.5;;
22515;SDS011;11424;48.860;9.624;2023-06-04T20:14:22;35;;;37;;
22515;SDS011;11424;48.860;9.624;2023-06-04T20:19:22;22.2;;;23.3;;
22515;SDS011;11424;48.860;9.624;2023-06-04T20:24:22;27;;;28.5;;
22515;SDS011;11424;48.860;9.624;2023-06-04T20:29:22;33.1;;;35;;
22515;SDS011;11424;48.860;9.624;2023-06-04T20:34:22;33.7;;;35.5;;
22515;SDS011;11424;48.860;9.624;2023-06-04T20:39:22;44.2;;;46.8;;
22515;SDS011;11424;48.860;9.624;2023-06-04T20:44:22;35.6;;;37.7;;
22515;SDS011;11424;48.860;9.624;2023-06-04T20:49:22;36.6;;;38.6;;
22515;SDS011;11424;48.860;9.624;2023-06-04T20:54:22;32.6;;;34.4;;
22515;SDS011;11424;48.860;9.624;2023-06-04T20:59:22;38.6;;;40.8;;
22515;SDS011;11424;48.860;9.624;2023-06-04T21:04:22;38.9;;;41.1;;
22515;SDS011;11424;48.860;9.624;2023-06-04T21:09:22;47.2;;;50.1;;
22515;SDS011;11424;48.860;9.624;2023-06-04T21:14:22;45.2;;;47.9;;
22515;SDS011;11424;48.860;9.624;2023-06-04T21:19:22;31.8;;;33.6;;
22515;SDS011;11424;48.860;9.624;2023-06-04T21:24:22;31.3;;;33.1;;
22515;SDS011;11424;48.860;9.624;2023-06-04T21:29:22;37.1;;;39.3;;
22515;SDS011;11424;48.860;9.624;2023-06-04T21:34:22;40.3;;;42.8;;
22515;SDS011;11424;48.860;9.624;2023-06-04T21:39:22;42;;;44.6;;
22515;SDS011;11424;48.860;9.624;2023-06-04T21:44:22;40.4;;;42.9;;
22515;SDS011;11424;48.860;9.624;2023-06-04T21:49:22;46.7;;;49.6;;
22515;SDS011;11424;48.860;9.624;2023-06-04T21:54:22;55.4;;;59.1;;
22515;SDS011;11424;48.860;9.624;2023-06-04T21:59:22;88.7;;;94.9;;
22515;SDS011;11424;48.860;9.624;2023-06-04T22:04:22;51.5;;;54.8;;
22515;SDS011;11424;48.860;9.624;2023-06-04T22:09:22;43.9;;;46.6;;
22515;SDS011;11424;48.860;9.624;2023-06-04T22:14:22;37.9;;;40.1;;
22515;SDS011;11424;48.860;9.624;2023-06-04T22:19:22;38.2;;;40.6;;
22515;SDS011;11424;48.860;9.624;2023-06-04T22:24:22;39.9;;;42.3;;
22515;SDS011;11424;48.860;9.624;2023-06-04T22:29:22;44.4;;;47.1;;
22515;SDS011;11424;48.860;9.624;2023-06-04T22:34:22;48.7;;;51.9;;
22515;SDS011;11424;48.860;9.624;2023-06-04T22:39:22;50.6;;;54.1;;
22515;SDS011;11424;48.860;9.624;2023-06-04T22:44:22;50.4;;;53.8;;
22515;SDS011;11424;48.860;9.624;2023-06-04T22:49:22;53.4;;;57;;
22515;SDS011;11424;48.860;9.624;2023-06-04T22:54:22;73.9;;;79.6;;
22515;SDS011;11424;48.860;9.624;2023-06-04T22:59:22;59.4;;;63.4;;
22515;SDS011;11424;48.860;9.624;2023-06-04T23:04:22;47;;;50.2;;
22515;SDS011;11424;48.860;9.624;2023-06-04T23:09:22;43.4;;;46.1;;
22515;SDS011;11424;48.860;9.624;2023-06-04T23:14:22;54.7;;;58.5;;
22515;SDS011;11424;48.860;9.624;2023-06-04T23:19:22;65.3;;;70.1;;
22515;SDS011;11424;48.860;9.624;2023-06-04T23:24:22;73.9;;;79.8;;
22515;SDS011;11424;48.860;9.624;2023-06-04T23:29:22;59.7;;;64.2;;
22515;SDS011;11424;48.860;9.624;2023-06-04T23:34:22;35.3;;;37.5;;
22515;SDS011;11424;48.860;9.624;2023-06-04T23:39:22;40.2;;;42.8;;
22515;SDS011;11424;48.860;9.624;2023-06-04T23:44:22;38.5;;;40.8;;
22515;SDS011;11424;48.860;9.624;2023-06-04T23:49:22;37.6;;;39.9;;
22515;SDS011;11424;48.860;9.624;2023-06-04T23:54:22;45.6;;;48.6;;
22515;SDS011;11424;48.860;9.624;2023-06-04T23:59:22;46.4;;;49.5;;
